createdAt,value
2023-05-03T00:01:28.614Z,144062.78
2023-05-03T00:03:55.642Z,144089.38
2023-05-03T00:06:22.791Z,144037.38
2023-05-03T00:08:49.832Z,144061.56
2023-05-03T00:11:16.872Z,144026.50
2023-05-03T00:13:43.905Z,144007.16
2023-05-03T00:16:10.889Z,144038.59
2023-05-03T00:18:38.006Z,144056.75
2023-05-03T00:21:05.435Z,144044.63
2023-05-03T00:23:32.494Z,144016.84
2023-05-03T00:25:59.489Z,144002.34
2023-05-03T00:28:26.890Z,143997.50
2023-05-03T00:30:54.111Z,144002.34
2023-05-03T00:33:21.464Z,143975.75
2023-05-03T00:35:48.534Z,143939.47
2023-05-03T00:38:15.778Z,143976.94
2023-05-03T00:40:43.109Z,143900.78
2023-05-03T00:43:13.648Z,143912.88
2023-05-03T00:45:41.032Z,143968.47
2023-05-03T00:48:08.243Z,143888.75
2023-05-03T00:50:36.949Z,143893.56
2023-05-03T00:53:04.802Z,143940.69
2023-05-03T00:55:33.191Z,143916.53
2023-05-03T00:58:00.226Z,143905.63
2023-05-03T01:00:27.342Z,143869.38
2023-05-03T01:02:54.518Z,143864.53
2023-05-03T01:05:22.797Z,143841.59
2023-05-03T01:08:15.455Z,143869.38
2023-05-03T01:10:51.477Z,143800.50
2023-05-03T01:13:30.483Z,143869.38
2023-05-03T01:16:09.408Z,143828.28
2023-05-03T01:18:44.063Z,143793.25
2023-05-03T01:21:16.437Z,143835.56
2023-05-03T01:23:52.202Z,143788.41
2023-05-03T01:26:23.507Z,143799.31
2023-05-03T01:28:51.036Z,143766.72
2023-05-03T01:31:28.852Z,143766.72
2023-05-03T01:34:10.784Z,143763.09
2023-05-03T01:36:40.861Z,143743.78
2023-05-03T01:39:12.464Z,143775.13
2023-05-03T01:41:40.571Z,143772.75
2023-05-03T01:44:09.227Z,143755.81
2023-05-03T01:46:43.681Z,143758.25
2023-05-03T01:49:12.259Z,143697.84
2023-05-03T01:51:39.610Z,143708.72
2023-05-03T01:54:06.664Z,143766.72
2023-05-03T01:56:36.630Z,143729.25
2023-05-03T01:59:04.320Z,143740.13
2023-05-03T02:01:31.492Z,143766.72
2023-05-03T02:03:58.600Z,143714.75
2023-05-03T02:06:26.229Z,143759.44
2023-05-03T02:08:54.115Z,143750.97
2023-05-03T02:11:21.454Z,143738.91
2023-05-03T02:13:50.638Z,143693.00
2023-05-03T02:16:18.306Z,143719.59
2023-05-03T02:18:45.438Z,143647.13
2023-05-03T02:21:13.145Z,143695.44
2023-05-03T02:23:40.272Z,143676.13
2023-05-03T02:26:07.913Z,143658.03
2023-05-03T02:28:35.107Z,143680.97
2023-05-03T02:31:02.755Z,143661.63
2023-05-03T02:33:29.803Z,143685.78
2023-05-03T02:35:56.837Z,143642.31
2023-05-03T02:38:23.997Z,143680.97
2023-05-03T02:40:51.605Z,143689.44
2023-05-03T02:43:18.798Z,143667.69
2023-05-03T02:45:45.895Z,143608.53
2023-05-03T02:48:13.237Z,143591.63
2023-05-03T02:50:40.922Z,143627.81
2023-05-03T02:53:08.515Z,143613.34
2023-05-03T02:55:36.694Z,143644.75
2023-05-03T02:58:04.072Z,143618.19
2023-05-03T03:00:31.256Z,143545.75
2023-05-03T03:02:58.493Z,143613.34
2023-05-03T03:05:25.729Z,143591.63
2023-05-03T03:07:52.769Z,143596.44
2023-05-03T03:10:20.148Z,143522.81
2023-05-03T03:12:48.732Z,143573.50
2023-05-03T03:15:24.643Z,143572.31
2023-05-03T03:17:52.005Z,143589.19
2023-05-03T03:20:19.226Z,143595.25
2023-05-03T03:22:48.179Z,143585.59
2023-05-03T03:25:15.996Z,143533.66
2023-05-03T03:27:43.023Z,143554.19
2023-05-03T03:30:10.477Z,143509.53
2023-05-03T03:32:45.409Z,143551.75
2023-05-03T03:35:18.308Z,143516.75
2023-05-03T03:37:45.418Z,143551.75
2023-05-03T03:40:13.253Z,143565.06
2023-05-03T03:42:40.750Z,143521.56
2023-05-03T03:45:08.570Z,143504.72
2023-05-03T03:47:35.687Z,143519.19
2023-05-03T03:50:03.018Z,143526.44
2023-05-03T03:52:32.086Z,143543.31
2023-05-03T03:54:59.233Z,143526.44
2023-05-03T03:57:30.059Z,143550.56
2023-05-03T03:59:58.281Z,143563.84
2023-05-03T04:02:27.618Z,143562.66
2023-05-03T04:04:54.682Z,143552.97
2023-05-03T04:07:22.396Z,143540.94
2023-05-03T04:09:49.855Z,143507.09
2023-05-03T04:12:17.520Z,143532.47
2023-05-03T04:14:46.954Z,143538.50
2023-05-03T04:17:14.175Z,143519.19
2023-05-03T04:19:41.696Z,143551.75
2023-05-03T04:22:09.395Z,143520.38
2023-05-03T04:24:39.566Z,143531.28
2023-05-03T04:27:08.720Z,143518.00
2023-05-03T04:29:38.636Z,143537.28
2023-05-03T04:32:07.724Z,143561.41
2023-05-03T04:34:36.082Z,143594.00
2023-05-03T04:37:05.095Z,143601.25
2023-05-03T04:39:32.811Z,143613.34
2023-05-03T04:42:00.158Z,143598.88
2023-05-03T04:44:27.674Z,143620.56
2023-05-03T04:46:54.902Z,143552.97
2023-05-03T04:49:22.461Z,143623.00
2023-05-03T04:51:49.493Z,143642.31
2023-05-03T04:54:17.708Z,143625.41
2023-05-03T04:56:44.770Z,143685.78
2023-05-03T04:59:16.536Z,143707.53
2023-05-03T05:01:43.808Z,143685.78
2023-05-03T05:04:11.163Z,143664.03
2023-05-03T05:06:43.385Z,143668.88
2023-05-03T05:09:22.647Z,143748.59
2023-05-03T05:11:57.214Z,143789.66
2023-05-03T05:14:28.162Z,143778.75
2023-05-03T05:16:55.401Z,143789.66
2023-05-03T05:19:22.817Z,143760.63
2023-05-03T05:21:51.472Z,143817.44
2023-05-03T05:24:19.296Z,143873.00
2023-05-03T05:26:46.930Z,143822.28
2023-05-03T05:29:15.449Z,143862.16
2023-05-03T05:31:43.049Z,143893.56
2023-05-03T05:34:11.137Z,143939.47
2023-05-03T05:36:38.292Z,143974.50
2023-05-03T05:39:09.416Z,143966.06
2023-05-03T05:41:36.442Z,143986.59
2023-05-03T05:44:03.927Z,143974.50
2023-05-03T05:46:31.500Z,144099.03
2023-05-03T05:48:59.316Z,144050.66
2023-05-03T05:51:27.944Z,144050.66
2023-05-03T05:53:55.375Z,144123.22
2023-05-03T05:56:23.714Z,144123.22
2023-05-03T05:58:50.839Z,144111.16
2023-05-03T06:01:18.030Z,144209.09
2023-05-03T06:03:45.519Z,144205.44
2023-05-03T06:06:12.568Z,144200.63
2023-05-03T06:08:39.670Z,144244.19
2023-05-03T06:11:07.695Z,144249.00
2023-05-03T06:13:38.319Z,144316.78
2023-05-03T06:16:06.846Z,144385.75
2023-05-03T06:18:33.855Z,144436.56
2023-05-03T06:21:00.936Z,144431.72
2023-05-03T06:23:28.134Z,144493.50
2023-05-03T06:25:57.433Z,144493.50
2023-05-03T06:28:25.419Z,144539.50
2023-05-03T06:30:55.021Z,144560.06
2023-05-03T06:33:22.421Z,144620.63
2023-05-03T06:35:51.932Z,144600.03
2023-05-03T06:38:19.857Z,144672.75
2023-05-03T06:40:47.756Z,144694.56
2023-05-03T06:43:14.824Z,144721.22
2023-05-03T06:45:45.199Z,144753.94
2023-05-03T06:48:12.273Z,144726.06
2023-05-03T06:50:39.852Z,144747.88
2023-05-03T06:53:06.851Z,144835.13
2023-05-03T06:55:33.988Z,144861.81
2023-05-03T06:58:01.440Z,144929.69
2023-05-03T07:00:28.669Z,144953.94
2023-05-03T07:02:56.641Z,145048.53
2023-05-03T07:05:23.698Z,145092.22
2023-05-03T07:07:50.874Z,145092.22
2023-05-03T07:10:18.006Z,145211.09
2023-05-03T07:12:44.983Z,145242.66
2023-05-03T07:15:12.082Z,145254.78
2023-05-03T07:17:39.077Z,145332.47
2023-05-03T07:20:07.076Z,145311.88
2023-05-03T07:22:34.083Z,145326.41
2023-05-03T07:25:01.221Z,145366.50
2023-05-03T07:27:28.277Z,145395.63
2023-05-03T07:29:55.363Z,145436.88
2023-05-03T07:32:22.727Z,145415.03
2023-05-03T07:34:50.127Z,145444.19
2023-05-03T07:37:17.389Z,145419.94
2023-05-03T07:39:45.500Z,145463.63
2023-05-03T07:42:12.556Z,145473.31
2023-05-03T07:44:39.531Z,145475.78
2023-05-03T07:47:06.552Z,145459.97
2023-05-03T07:49:35.705Z,145545.00
2023-05-03T07:52:03.052Z,145536.47
2023-05-03T07:54:30.292Z,145588.75
2023-05-03T07:56:57.422Z,145577.78
2023-05-03T07:59:24.430Z,145613.03
2023-05-03T08:01:51.474Z,145606.97
2023-05-03T08:04:18.775Z,145655.53
2023-05-03T08:06:46.096Z,145602.09
2023-05-03T08:09:13.980Z,145611.81
2023-05-03T08:11:43.184Z,145636.09
2023-05-03T08:14:11.367Z,145604.50
2023-05-03T08:16:38.721Z,145621.53
2023-05-03T08:19:05.970Z,145633.66
2023-05-03T08:21:33.223Z,145703.00
2023-05-03T08:24:00.820Z,145727.28
2023-05-03T08:26:29.705Z,145689.56
2023-05-03T08:28:56.912Z,145709.06
2023-05-03T08:31:24.064Z,145682.25
2023-05-03T08:33:51.681Z,145665.25
2023-05-03T08:36:18.912Z,145767.41
2023-05-03T08:38:45.951Z,145796.56
2023-05-03T08:41:26.735Z,145769.81
2023-05-03T08:43:55.332Z,145737.00
2023-05-03T08:46:22.567Z,145706.59
2023-05-03T08:48:52.612Z,145746.72
2023-05-03T08:51:21.402Z,145799.00
2023-05-03T08:53:49.759Z,145835.47
2023-05-03T08:56:26.893Z,145863.44
2023-05-03T08:58:53.875Z,145864.63
2023-05-03T09:01:21.023Z,145887.72
2023-05-03T09:03:51.936Z,145905.97
2023-05-03T09:06:26.251Z,145929.06
2023-05-03T09:08:54.648Z,145892.59
2023-05-03T09:11:32.377Z,145867.09
2023-05-03T09:14:16.942Z,145848.84
2023-05-03T09:16:45.613Z,145882.88
2023-05-03T09:19:15.065Z,145972.88
2023-05-03T09:21:44.214Z,146025.16
2023-05-03T09:24:21.758Z,146030.00
2023-05-03T09:26:51.050Z,146081.19
2023-05-03T09:29:27.645Z,146056.78
2023-05-03T09:32:00.383Z,146042.19
2023-05-03T09:34:27.433Z,146116.44
2023-05-03T09:36:55.097Z,146053.13
2023-05-03T09:39:22.091Z,146115.22
2023-05-03T09:41:49.525Z,146133.47
2023-05-03T09:44:19.420Z,146151.72
2023-05-03T09:47:06.124Z,146077.53
2023-05-03T09:49:34.037Z,146193.09
2023-05-03T09:52:01.947Z,146217.44
2023-05-03T09:54:31.365Z,146179.72
2023-05-03T09:56:59.109Z,146233.28
2023-05-03T09:59:26.167Z,146257.59
2023-05-03T10:01:57.545Z,146307.50
2023-05-03T10:04:27.813Z,146347.69
2023-05-03T10:07:00.423Z,146436.63
2023-05-03T10:09:37.236Z,146365.97
2023-05-03T10:12:08.525Z,146339.16
2023-05-03T10:14:36.239Z,146378.16
2023-05-03T10:17:08.777Z,146373.28
2023-05-03T10:19:46.023Z,146370.84
2023-05-03T10:22:13.158Z,146368.38
2023-05-03T10:25:00.246Z,146379.34
2023-05-03T10:27:45.803Z,146325.78
2023-05-03T10:30:34.706Z,146370.84
2023-05-03T10:33:28.630Z,146387.88
2023-05-03T10:35:56.144Z,146512.16
2023-05-03T10:38:25.840Z,146538.94
2023-05-03T10:40:54.941Z,146579.16
2023-05-03T10:43:46.041Z,146475.59
2023-05-03T10:46:31.351Z,146484.13
2023-05-03T10:49:19.490Z,146431.75
2023-05-03T10:51:46.773Z,146412.28
2023-05-03T10:54:13.979Z,146471.94
2023-05-03T10:56:55.996Z,146577.91
2023-05-03T10:59:24.197Z,146604.72
2023-05-03T11:01:52.984Z,146641.28
2023-05-03T11:04:33.882Z,146674.16
2023-05-03T11:07:01.385Z,146614.47
2023-05-03T11:09:33.211Z,146714.44
2023-05-03T11:12:04.384Z,146707.09
2023-05-03T11:14:31.733Z,146748.59
2023-05-03T11:16:58.858Z,146731.50
2023-05-03T11:19:26.118Z,146770.50
2023-05-03T11:21:53.378Z,146782.69
2023-05-03T11:24:20.525Z,146769.28
2023-05-03T11:26:48.724Z,146779.03
2023-05-03T11:29:17.185Z,146790.03
2023-05-03T11:31:44.568Z,146760.75
2023-05-03T11:34:12.839Z,146787.56
2023-05-03T11:36:41.550Z,146833.88
2023-05-03T11:39:09.241Z,146775.41
2023-05-03T11:41:36.793Z,146863.19
2023-05-03T11:44:16.123Z,146696.09
2023-05-03T11:46:46.475Z,146755.88
2023-05-03T11:49:18.400Z,146772.94
2023-05-03T11:51:48.420Z,146815.59
2023-05-03T11:54:25.131Z,146821.72
2023-05-03T11:56:57.901Z,146794.91
2023-05-03T11:59:38.925Z,146868.03
2023-05-03T12:02:11.657Z,146921.72
2023-05-03T12:04:44.661Z,146958.28
2023-05-03T12:07:14.719Z,146858.31
2023-05-03T12:09:50.321Z,146893.63
2023-05-03T12:12:31.588Z,146913.16
2023-05-03T12:15:03.490Z,147002.22
2023-05-03T12:17:44.152Z,147066.88
2023-05-03T12:20:51.847Z,147091.28
2023-05-03T12:23:09.898Z,147133.97
2023-05-03T12:25:39.635Z,147088.84
2023-05-03T12:28:19.842Z,147031.47
2023-05-03T12:30:48.318Z,146999.81
2023-05-03T12:33:16.992Z,147064.44
2023-05-03T12:35:47.794Z,147058.31
2023-05-03T12:38:17.388Z,147030.28
2023-05-03T12:40:46.724Z,147085.16
2023-05-03T12:43:13.972Z,147136.41
2023-05-03T12:45:41.433Z,147193.78
2023-05-03T12:48:09.181Z,147259.72
2023-05-03T12:50:38.555Z,147259.72
2023-05-03T12:53:09.598Z,147219.41
2023-05-03T12:55:43.252Z,147251.16
2023-05-03T13:00:53.485Z,147187.69
2023-05-03T13:03:33.492Z,147263.38
2023-05-03T13:06:12.433Z,147270.72
2023-05-03T13:08:49.340Z,147368.34
2023-05-03T13:11:18.975Z,147361.03
2023-05-03T13:13:46.412Z,147385.47
2023-05-03T13:16:14.442Z,147400.09
2023-05-03T13:18:43.223Z,147444.09
2023-05-03T13:21:10.424Z,147436.75
2023-05-03T13:23:37.813Z,147414.75
2023-05-03T13:26:05.011Z,147405.00
2023-05-03T13:28:32.036Z,147383.00
2023-05-03T13:30:59.061Z,147390.34
2023-05-03T13:33:26.494Z,147380.59
2023-05-03T13:35:53.471Z,147362.28
2023-05-03T13:38:20.713Z,147400.09
2023-05-03T13:40:47.720Z,147430.66
2023-05-03T13:43:14.819Z,147431.88
2023-05-03T13:45:41.906Z,147468.50
2023-05-03T13:48:16.218Z,147477.06
2023-05-03T13:50:45.902Z,147527.16
2023-05-03T13:53:12.982Z,147523.50
2023-05-03T13:55:40.109Z,147615.13
2023-05-03T13:58:07.131Z,147530.84
2023-05-03T14:00:34.163Z,147634.66
2023-05-03T14:03:01.443Z,147583.34
2023-05-03T14:05:28.962Z,147573.59
2023-05-03T14:07:56.713Z,147539.34
2023-05-03T14:10:24.150Z,147563.81
2023-05-03T14:12:52.105Z,147545.50
2023-05-03T14:15:19.335Z,147500.28
2023-05-03T14:17:49.530Z,147546.69
2023-05-03T14:20:19.975Z,147546.69
2023-05-03T14:22:47.036Z,147593.13
2023-05-03T14:25:14.123Z,147529.59
2023-05-03T14:27:41.119Z,147634.66
2023-05-03T14:30:09.399Z,147652.97
2023-05-03T14:32:36.460Z,147576.00
2023-05-03T14:35:03.999Z,147611.44
2023-05-03T14:37:31.182Z,147627.34
2023-05-03T14:39:58.450Z,147627.34
2023-05-03T14:42:30.227Z,147481.94
2023-05-03T14:44:57.425Z,147684.75
2023-05-03T14:47:24.632Z,147685.97
2023-05-03T14:49:52.032Z,147668.88
2023-05-03T14:52:19.071Z,147749.56
2023-05-03T14:54:46.224Z,147720.25
2023-05-03T14:57:13.217Z,147717.78
2023-05-03T14:59:40.379Z,147791.09
2023-05-03T15:02:07.526Z,147800.88
2023-05-03T15:04:37.008Z,147852.25
2023-05-03T15:07:06.387Z,147984.31
2023-05-03T15:09:33.863Z,148133.53
2023-05-03T15:12:01.953Z,148281.63
2023-05-03T15:14:29.055Z,148482.44
2023-05-03T15:16:56.277Z,148513.06
2023-05-03T15:19:23.367Z,148662.47
2023-05-03T15:21:51.573Z,148645.31
2023-05-03T15:24:18.845Z,148745.81
2023-05-03T15:26:46.909Z,148677.19
2023-05-03T15:29:15.270Z,148596.38
2023-05-03T15:31:42.817Z,148557.16
2023-05-03T15:34:12.237Z,148816.91
2023-05-03T15:36:40.418Z,148914.97
2023-05-03T15:39:07.649Z,148867.16
2023-05-03T15:41:34.759Z,149066.97
2023-05-03T15:44:05.177Z,149010.59
2023-05-03T15:46:33.461Z,149128.31
2023-05-03T15:49:00.941Z,149105.03
2023-05-03T15:51:28.080Z,149139.38
2023-05-03T15:53:55.641Z,149096.47
2023-05-03T15:56:22.688Z,149113.63
2023-05-03T15:58:50.338Z,149121.00
2023-05-03T16:01:18.547Z,148968.94
2023-05-03T16:03:46.145Z,148924.78
2023-05-03T16:06:16.676Z,149046.16
2023-05-03T16:08:44.208Z,149209.28
2023-05-03T16:11:12.680Z,149513.63
2023-05-03T16:13:39.710Z,149502.59
2023-05-03T16:16:06.981Z,149540.63
2023-05-03T16:18:34.058Z,149474.38
2023-05-03T16:21:01.935Z,149554.13
2023-05-03T16:23:28.990Z,149680.59
2023-05-03T16:25:56.480Z,149502.59
2023-05-03T16:28:23.547Z,149570.06
2023-05-03T16:30:50.532Z,149573.75
2023-05-03T16:33:18.140Z,149625.34
2023-05-03T16:35:45.193Z,149529.59
2023-05-03T16:38:12.299Z,149467.00
2023-05-03T16:40:40.717Z,149498.91
2023-05-03T16:43:07.854Z,149435.09
2023-05-03T16:45:35.066Z,149673.25
2023-05-03T16:48:04.816Z,149560.25
2023-05-03T16:50:33.329Z,149636.44
2023-05-03T16:53:00.331Z,149521.00
2023-05-03T16:55:27.428Z,149697.78
2023-05-03T16:57:54.465Z,149711.31
2023-05-03T17:00:21.806Z,149643.75
2023-05-03T17:02:49.155Z,149697.78
2023-05-03T17:05:16.319Z,149430.19
2023-05-03T17:07:43.369Z,149597.13
2023-05-03T17:10:10.593Z,149521.00
2023-05-03T17:12:37.868Z,149378.63
2023-05-03T17:15:05.568Z,149555.34
2023-05-03T17:17:32.976Z,149388.41
2023-05-03T17:20:00.091Z,149670.78
2023-05-03T17:22:27.929Z,149415.47
2023-05-03T17:24:57.776Z,149502.59
2023-05-03T17:27:24.911Z,149419.16
2023-05-03T17:29:51.901Z,149086.63
2023-05-03T17:32:19.217Z,148571.84
2023-05-03T17:34:46.238Z,148074.81
2023-05-03T17:37:13.363Z,147803.34
2023-05-03T17:39:41.386Z,147639.53
2023-05-03T17:42:08.941Z,147524.72
2023-05-03T17:44:36.009Z,147451.38
2023-05-03T17:47:04.478Z,147414.75
2023-05-03T17:49:34.608Z,147368.34
2023-05-03T17:52:01.684Z,147309.75
2023-05-03T17:54:29.105Z,147231.59
2023-05-03T17:56:56.170Z,147282.88
2023-05-03T17:59:23.167Z,147190.09
2023-05-03T18:01:50.206Z,147241.34
2023-05-03T18:04:17.212Z,147191.31
2023-05-03T18:06:44.415Z,147171.78
2023-05-03T18:09:11.389Z,147163.25
2023-05-03T18:11:39.914Z,147124.22
2023-05-03T18:14:06.987Z,147109.59
2023-05-03T18:16:33.963Z,147080.28
2023-05-03T18:19:00.963Z,147046.16
2023-05-03T18:21:28.591Z,147026.59
2023-05-03T18:23:56.404Z,146999.81
2023-05-03T18:26:23.643Z,146971.66
2023-05-03T18:28:52.977Z,146931.47
2023-05-03T18:31:21.415Z,146919.25
2023-05-03T18:33:48.894Z,146911.91
2023-05-03T18:36:17.001Z,146877.78
2023-05-03T18:38:44.315Z,146861.91
2023-05-03T18:41:16.458Z,146831.47
2023-05-03T18:43:44.716Z,146805.84
2023-05-03T18:46:17.255Z,146780.28
2023-05-03T18:48:44.347Z,146716.91
2023-05-03T18:51:11.674Z,146719.31
2023-05-03T18:53:38.813Z,146670.53
2023-05-03T18:56:06.102Z,146662.00
2023-05-03T18:58:33.258Z,146643.72
2023-05-03T19:01:00.581Z,146629.13
2023-05-03T19:03:31.789Z,146592.56
2023-05-03T19:06:04.057Z,146590.09
2023-05-03T19:08:31.667Z,146556.00
2023-05-03T19:11:10.705Z,146530.41
2023-05-03T19:13:37.834Z,146514.56
2023-05-03T19:16:05.445Z,146448.81
2023-05-03T19:18:32.619Z,146458.53
2023-05-03T19:20:59.934Z,146389.09
2023-05-03T19:23:27.076Z,146412.28
2023-05-03T19:25:54.104Z,146385.44
2023-05-03T19:28:21.332Z,146291.72
2023-05-03T19:30:51.667Z,146305.09
2023-05-03T19:33:19.911Z,146307.50
2023-05-03T19:35:47.615Z,146225.97
2023-05-03T19:38:14.789Z,146217.44
2023-05-03T19:40:42.152Z,146151.72
2023-05-03T19:43:09.187Z,146212.56
2023-05-03T19:45:41.832Z,146205.28
2023-05-03T19:48:10.284Z,146200.44
2023-05-03T19:50:37.434Z,146168.78
2023-05-03T19:53:04.451Z,146168.78
2023-05-03T19:55:31.577Z,146149.28
2023-05-03T19:57:58.718Z,146139.56
2023-05-03T20:00:27.398Z,146021.50
2023-05-03T20:02:54.689Z,146095.78
2023-05-03T20:05:21.965Z,146059.22
2023-05-03T20:07:49.123Z,146064.09
2023-05-03T20:10:16.235Z,146011.78
2023-05-03T20:12:43.282Z,146015.41
2023-05-03T20:15:11.563Z,146003.25
2023-05-03T20:17:38.794Z,145969.22
2023-05-03T20:20:07.345Z,145989.91
2023-05-03T20:22:34.350Z,145927.88
2023-05-03T20:25:01.335Z,145930.28
2023-05-03T20:27:28.460Z,145910.84
2023-05-03T20:29:56.594Z,145888.94
2023-05-03T20:32:23.626Z,145869.50
2023-05-03T20:34:50.629Z,145857.31
2023-05-03T20:37:18.228Z,145825.75
2023-05-03T20:39:45.318Z,145739.44
2023-05-03T20:42:12.284Z,145801.41
2023-05-03T20:44:39.278Z,145784.38
2023-05-03T20:47:06.260Z,145760.09
2023-05-03T20:49:33.320Z,145707.84
2023-05-03T20:52:00.481Z,145733.34
2023-05-03T20:54:27.458Z,145727.28
2023-05-03T20:56:54.434Z,145723.63
2023-05-03T20:59:21.481Z,145713.91
2023-05-03T21:01:48.542Z,145698.09
2023-05-03T21:04:15.886Z,145657.97
2023-05-03T21:06:45.057Z,145638.56
2023-05-03T21:09:12.414Z,145636.09
2023-05-03T21:11:39.683Z,145592.34
2023-05-03T21:14:06.664Z,145565.66
2023-05-03T21:16:33.979Z,145558.34
2023-05-03T21:19:02.884Z,145576.56
2023-05-03T21:21:30.811Z,145519.47
2023-05-03T21:23:58.060Z,145531.63
2023-05-03T21:26:25.140Z,145527.97
2023-05-03T21:28:52.127Z,145453.91
2023-05-03T21:31:19.207Z,145519.47
2023-05-03T21:33:46.245Z,145512.19
2023-05-03T21:36:13.670Z,145495.19
2023-05-03T21:38:40.751Z,145486.69
2023-05-03T21:41:08.230Z,145478.16
2023-05-03T21:43:35.795Z,145434.47
2023-05-03T21:46:07.830Z,145439.34
2023-05-03T21:48:37.078Z,145412.63
2023-05-03T21:51:04.113Z,145371.34
2023-05-03T21:53:31.271Z,145384.69
2023-05-03T21:55:58.232Z,145345.84
2023-05-03T21:58:25.902Z,145364.03
2023-05-03T22:00:53.485Z,145357.97
2023-05-03T22:03:20.586Z,145354.34
2023-05-03T22:05:48.715Z,145326.41
2023-05-03T22:08:18.011Z,145303.38
2023-05-03T22:10:45.580Z,145308.22
2023-05-03T22:13:12.967Z,145282.72
2023-05-03T22:15:40.194Z,145229.28
2023-05-03T22:18:07.469Z,145247.50
2023-05-03T22:20:34.617Z,145214.69
2023-05-03T22:23:01.761Z,145232.91
2023-05-03T22:25:31.951Z,145206.25
2023-05-03T22:27:59.547Z,145224.44
2023-05-03T22:30:26.608Z,145202.59
2023-05-03T22:32:53.830Z,145189.25
2023-05-03T22:35:21.143Z,145171.03
2023-05-03T22:37:48.219Z,145172.25
2023-05-03T22:40:15.246Z,145169.84
2023-05-03T22:42:42.411Z,145128.59
2023-05-03T22:45:09.801Z,145148.00
2023-05-03T22:47:36.844Z,145133.44
2023-05-03T22:50:04.330Z,145117.66
2023-05-03T22:52:31.852Z,145082.47
2023-05-03T22:55:00.445Z,145099.47
2023-05-03T22:57:27.716Z,145072.75
2023-05-03T22:59:55.152Z,145053.38
2023-05-03T23:02:22.182Z,145053.38
2023-05-03T23:04:49.216Z,145014.53
2023-05-03T23:07:16.217Z,144968.47
2023-05-03T23:09:43.996Z,145037.63
2023-05-03T23:12:11.764Z,145004.84
2023-05-03T23:14:42.212Z,144984.25
2023-05-03T23:17:10.610Z,144923.59
2023-05-03T23:19:38.016Z,144970.91
2023-05-03T23:22:05.373Z,144975.75
2023-05-03T23:24:34.576Z,144916.34
2023-05-03T23:27:01.779Z,144917.56
2023-05-03T23:29:29.259Z,144955.13
2023-05-03T23:31:56.957Z,144878.78
2023-05-03T23:34:24.667Z,144922.41
2023-05-03T23:36:51.653Z,144904.22
2023-05-03T23:39:18.727Z,144893.31
2023-05-03T23:41:45.911Z,144889.69
2023-05-03T23:44:13.040Z,144853.31
2023-05-03T23:46:40.085Z,144854.50
2023-05-03T23:49:07.516Z,144873.94
2023-05-03T23:51:34.683Z,144875.16
2023-05-03T23:54:01.667Z,144873.94
2023-05-03T23:56:28.680Z,144871.50
2023-05-03T23:58:55.784Z,144854.50
